KLNR/LNR METAR and TAF weather

Enter ICAO airport designator
Station Type Date Time Source
KLNR METAR 2021/09/27 05:56 UTC NOAA

KLNR 270556Z AUTO 00000KT 10SM CLR 14/11 A2973 RMK AO2 SLP060 T01390111 10211 20128 402780039 58003 $


Station Type Date Time Source
KLNR Decoded METAR 2021/09/27 05:56 UTC NOAA

LONE ROCK TRI-COUNTY REG, WI, United States (KLNR) 43-13N 090-11W 217M
Sep 27, 2021 - 01:56 AM EDT / 2021.09.27 0556 UTC
Wind: Calm:0
Visibility: 10 mile(s):0
Sky conditions: clear
Temperature: 57.0 F (13.9 C)
Dew Point: 52.0 F (11.1 C)
Relative Humidity: 83%
Pressure (altimeter): 29.73 in. Hg (1006 hPa)
Pressure tendency: 0.01 inches (0.3 hPa) lower than three hours ago
ob: KLNR 270556Z AUTO 00000KT 10SM CLR 14/11 A2973 RMK AO2 SLP060 T01390111 10211 20128 402780039 58003
cycle: 6

Station Type Date Time Source
KLNR TAF UTC NOAA

Error!

Example: see airport list